createdAt,value
2023-01-08T00:03:31.974Z,8.30
2023-01-08T00:08:34.192Z,8.25
2023-01-08T00:13:42.046Z,8.26
2023-01-08T00:18:44.961Z,8.21
2023-01-08T00:23:46.798Z,8.19
2023-01-08T00:28:48.440Z,8.16
2023-01-08T00:33:50.062Z,8.13
2023-01-08T00:38:51.726Z,8.14
2023-01-08T00:43:53.328Z,8.09
2023-01-08T00:48:55.000Z,8.09
2023-01-08T00:53:59.665Z,8.05
2023-01-08T00:59:01.379Z,8.02
2023-01-08T01:04:03.225Z,8.03
2023-01-08T01:09:04.849Z,8.01
2023-01-08T01:14:06.474Z,7.96
2023-01-08T01:19:08.429Z,7.99
2023-01-08T01:24:12.631Z,8.04
2023-01-08T01:29:14.272Z,7.97
2023-01-08T01:34:16.046Z,7.93
2023-01-08T01:39:19.879Z,7.84
2023-01-08T01:44:41.448Z,7.83
2023-01-08T01:49:49.987Z,7.77
2023-01-08T01:54:52.480Z,7.71
2023-01-08T01:59:56.416Z,7.66
2023-01-08T02:04:59.599Z,7.74
2023-01-08T02:10:11.556Z,7.66
2023-01-08T02:15:24.339Z,7.68
2023-01-08T02:20:46.504Z,7.61
2023-01-08T02:26:09.414Z,7.57
2023-01-08T02:31:13.176Z,7.53
2023-01-08T02:36:33.457Z,7.55
2023-01-08T02:41:42.151Z,7.53
2023-01-08T02:46:44.817Z,7.53
2023-01-08T02:51:53.763Z,7.54
2023-01-08T02:57:03.094Z,7.59
2023-01-08T03:02:05.894Z,7.54
2023-01-08T03:07:07.590Z,7.45
2023-01-08T03:12:38.219Z,7.41
2023-01-08T03:17:45.235Z,7.37
2023-01-08T03:22:50.864Z,7.39
2023-01-08T03:27:57.660Z,7.37
2023-01-08T03:33:01.297Z,7.41
2023-01-08T03:38:40.642Z,7.37
2023-01-08T03:43:42.313Z,7.30
2023-01-08T03:48:44.926Z,7.30
2023-01-08T03:53:47.396Z,7.31
2023-01-08T03:58:49.094Z,7.28
2023-01-08T04:03:50.769Z,7.28
2023-01-08T04:08:55.211Z,7.24
2023-01-08T04:13:56.845Z,7.19
2023-01-08T04:18:58.479Z,7.15
2023-01-08T04:24:00.301Z,7.13
2023-01-08T04:29:04.942Z,7.08
2023-01-08T04:34:06.613Z,7.05
2023-01-08T04:39:08.596Z,7.11
2023-01-08T04:44:10.265Z,7.11
2023-01-08T04:49:12.453Z,7.10
2023-01-08T04:54:14.173Z,7.09
2023-01-08T04:59:15.795Z,7.01
2023-01-08T05:04:17.539Z,6.97
2023-01-08T05:09:19.171Z,7.00
2023-01-08T05:14:20.860Z,6.95
2023-01-08T05:19:22.593Z,6.96
2023-01-08T05:24:24.360Z,6.98
2023-01-08T05:29:25.949Z,6.95
2023-01-08T05:34:27.611Z,6.91
2023-01-08T05:39:29.344Z,6.94
2023-01-08T05:44:31.054Z,6.96
2023-01-08T05:49:32.730Z,6.94
2023-01-08T05:54:34.397Z,6.97
2023-01-08T05:59:36.009Z,6.99
2023-01-08T06:04:37.689Z,6.91
2023-01-08T06:09:39.372Z,6.88
2023-01-08T06:14:40.984Z,6.88
2023-01-08T06:19:42.617Z,6.84
2023-01-08T06:24:44.291Z,6.82
2023-01-08T06:29:45.942Z,6.83
2023-01-08T06:34:47.650Z,6.78
2023-01-08T06:39:49.343Z,6.75
2023-01-08T06:44:51.040Z,6.77
2023-01-08T06:49:52.739Z,6.72
2023-01-08T06:54:54.328Z,6.77
2023-01-08T06:59:55.958Z,6.71
2023-01-08T07:04:57.614Z,6.69
2023-01-08T07:09:59.209Z,6.69
2023-01-08T07:15:01.872Z,6.66
2023-01-08T07:20:03.790Z,6.67
2023-01-08T07:25:06.028Z,6.59
2023-01-08T07:30:12.829Z,6.50
2023-01-08T07:35:19.831Z,6.46
2023-01-08T07:40:21.957Z,6.39
2023-01-08T07:45:23.694Z,6.34
2023-01-08T07:50:26.338Z,6.35
2023-01-08T07:55:29.792Z,6.33
2023-01-08T08:00:31.493Z,6.30
2023-01-08T08:05:34.110Z,6.30
2023-01-08T08:10:35.789Z,6.26
2023-01-08T08:15:38.799Z,6.18
2023-01-08T08:20:40.399Z,6.16
2023-01-08T08:25:42.809Z,6.16
2023-01-08T08:30:44.509Z,6.19
2023-01-08T08:35:50.563Z,6.14
2023-01-08T08:40:52.924Z,6.08
2023-01-08T08:45:57.796Z,6.09
2023-01-08T08:50:59.477Z,6.08
2023-01-08T08:56:01.344Z,6.10
2023-01-08T09:01:04.235Z,6.02
2023-01-08T09:06:06.311Z,6.11
2023-01-08T09:11:08.006Z,6.11
2023-01-08T09:16:09.713Z,6.15
2023-01-08T09:21:11.752Z,6.15
2023-01-08T09:26:13.421Z,6.17
2023-01-08T09:31:15.097Z,6.27
2023-01-08T09:36:17.050Z,6.31
2023-01-08T09:41:26.821Z,6.37
2023-01-08T09:46:29.378Z,6.39
2023-01-08T09:51:36.650Z,6.48
2023-01-08T09:56:38.654Z,6.55
2023-01-08T10:01:41.335Z,6.59
2023-01-08T10:06:57.115Z,6.66
2023-01-08T10:12:02.569Z,6.70
2023-01-08T10:17:23.857Z,6.78
2023-01-08T10:22:31.933Z,6.84
2023-01-08T10:27:45.965Z,6.92
2023-01-08T10:32:56.094Z,6.92
2023-01-08T10:37:58.066Z,6.98
2023-01-08T10:43:08.642Z,7.05
2023-01-08T10:48:18.437Z,7.09
2023-01-08T10:53:28.271Z,7.13
2023-01-08T10:58:30.842Z,7.17
2023-01-08T11:03:33.045Z,7.20
2023-01-08T11:08:34.800Z,7.18
2023-01-08T11:13:36.783Z,7.23
2023-01-08T11:18:51.768Z,7.33
2023-01-08T11:24:22.733Z,7.34
2023-01-08T11:29:38.970Z,7.43
2023-01-08T11:34:59.463Z,7.40
2023-01-08T11:40:01.345Z,7.47
2023-01-08T11:45:17.877Z,7.58
2023-01-08T11:50:29.055Z,7.64
2023-01-08T11:55:35.543Z,7.64
2023-01-08T12:01:15.060Z,7.72
2023-01-08T12:06:37.052Z,7.65
2023-01-08T12:11:47.390Z,7.69
2023-01-08T12:16:59.414Z,7.72
2023-01-08T12:22:16.236Z,7.86
2023-01-08T12:27:40.857Z,7.84
2023-01-08T12:32:55.996Z,7.87
2023-01-08T12:38:11.400Z,7.79
2023-01-08T12:43:27.440Z,7.77
2023-01-08T12:48:33.678Z,7.77
2023-01-08T12:53:49.394Z,7.82
2023-01-08T12:59:08.271Z,7.80
2023-01-08T13:04:11.239Z,7.79
2023-01-08T13:09:23.149Z,7.85
2023-01-08T13:14:27.444Z,7.86
2023-01-08T13:19:38.422Z,7.91
2023-01-08T13:24:42.770Z,7.94
2023-01-08T13:29:50.051Z,7.93
2023-01-08T13:35:16.753Z,7.89
2023-01-08T13:40:43.243Z,7.89
2023-01-08T13:46:08.887Z,7.89
2023-01-08T13:51:44.696Z,7.89
2023-01-08T13:56:53.970Z,7.89
2023-01-08T14:01:57.097Z,7.85
2023-01-08T14:07:12.718Z,7.87
2023-01-08T14:12:20.340Z,7.85
2023-01-08T14:17:31.398Z,7.91
2023-01-08T14:22:34.899Z,7.93
2023-01-08T14:27:36.640Z,7.93
2023-01-08T14:32:43.485Z,7.91
2023-01-08T14:37:45.198Z,7.88
2023-01-08T14:42:47.540Z,7.85
2023-01-08T14:47:56.699Z,7.85
2023-01-08T14:53:26.835Z,7.84
2023-01-08T14:58:35.228Z,7.82
2023-01-08T15:03:40.459Z,7.86
2023-01-08T15:08:44.634Z,7.80
2023-01-08T15:13:48.291Z,7.69
2023-01-08T15:19:18.043Z,7.70
2023-01-08T15:24:29.317Z,7.73
2023-01-08T15:29:37.153Z,7.65
2023-01-08T15:34:38.791Z,7.57
2023-01-08T15:39:41.125Z,7.54
2023-01-08T15:44:42.761Z,7.48
2023-01-08T15:49:44.686Z,7.43
2023-01-08T15:54:46.416Z,7.44
2023-01-08T15:59:48.116Z,7.31
2023-01-08T16:04:54.482Z,7.35
2023-01-08T16:09:56.493Z,7.31
2023-01-08T16:14:58.217Z,7.24
2023-01-08T16:19:59.880Z,7.19
2023-01-08T16:25:01.717Z,7.19
2023-01-08T16:30:04.620Z,7.23
2023-01-08T16:35:06.879Z,7.21
2023-01-08T16:40:10.040Z,7.20
2023-01-08T16:45:11.837Z,7.12
2023-01-08T16:50:13.534Z,7.08
2023-01-08T16:55:15.208Z,7.14
2023-01-08T17:00:17.256Z,7.14
2023-01-08T17:05:18.948Z,7.10
2023-01-08T17:10:22.828Z,7.18
2023-01-08T17:15:24.591Z,7.22
2023-01-08T17:20:26.266Z,7.30
2023-01-08T17:25:28.068Z,7.32
2023-01-08T17:30:29.701Z,7.29
2023-01-08T17:35:31.443Z,7.33
2023-01-08T17:40:34.464Z,7.34
2023-01-08T17:45:38.628Z,7.36
2023-01-08T17:50:40.606Z,7.41
2023-01-08T17:55:42.363Z,7.40
2023-01-08T18:00:44.060Z,7.40
2023-01-08T18:05:45.679Z,7.44
2023-01-08T18:10:47.641Z,7.48
2023-01-08T18:15:49.397Z,7.41
2023-01-08T18:20:56.666Z,7.36
2023-01-08T18:26:07.244Z,7.30
2023-01-08T18:31:13.971Z,7.28
2023-01-08T18:36:18.902Z,7.32
2023-01-08T18:41:39.575Z,7.32
2023-01-08T18:46:41.316Z,7.23
2023-01-08T18:51:43.347Z,7.18
2023-01-08T18:56:46.447Z,7.11
2023-01-08T19:01:48.825Z,7.09
2023-01-08T19:06:50.634Z,7.03
2023-01-08T19:11:53.734Z,7.04
2023-01-08T19:16:58.426Z,7.00
2023-01-08T19:22:03.339Z,6.97
2023-01-08T19:27:05.172Z,6.98
2023-01-08T19:32:07.691Z,7.02
2023-01-08T19:37:09.804Z,6.96
2023-01-08T19:42:30.440Z,6.94
2023-01-08T19:47:32.257Z,6.95
2023-01-08T19:52:33.952Z,6.94
2023-01-08T19:57:35.702Z,6.92
2023-01-08T20:02:37.438Z,6.94
2023-01-08T20:07:41.853Z,6.94
2023-01-08T20:12:46.374Z,6.84
2023-01-08T20:17:48.093Z,6.90
2023-01-08T20:22:52.256Z,6.93
2023-01-08T20:27:53.927Z,6.94
2023-01-08T20:32:55.668Z,6.89
2023-01-08T20:37:57.468Z,6.91
2023-01-08T20:42:59.244Z,6.88
2023-01-08T20:48:04.251Z,6.89
2023-01-08T20:53:05.876Z,6.93
2023-01-08T20:58:07.688Z,7.02
2023-01-08T21:03:15.273Z,7.06
2023-01-08T21:08:22.451Z,7.04
2023-01-08T21:13:25.656Z,6.98
2023-01-08T21:18:33.673Z,7.02
2023-01-08T21:23:35.661Z,6.87
2023-01-08T21:28:38.908Z,6.90
2023-01-08T21:33:41.557Z,6.85
2023-01-08T21:38:44.257Z,6.89
2023-01-08T21:44:06.837Z,6.90
2023-01-08T21:49:08.520Z,6.93
2023-01-08T21:54:10.234Z,6.96
2023-01-08T21:59:12.033Z,6.96
2023-01-08T22:04:13.761Z,6.97
2023-01-08T22:09:15.522Z,6.94
2023-01-08T22:14:17.494Z,6.90
2023-01-08T22:19:19.085Z,6.88
2023-01-08T22:24:20.909Z,6.92
2023-01-08T22:29:22.619Z,6.86
2023-01-08T22:34:24.350Z,6.81
2023-01-08T22:39:26.079Z,6.86
2023-01-08T22:44:27.750Z,6.82
2023-01-08T22:49:29.376Z,6.82
2023-01-08T22:54:31.098Z,6.79
2023-01-08T22:59:32.838Z,6.71
2023-01-08T23:04:34.560Z,6.71
2023-01-08T23:09:36.205Z,6.70
2023-01-08T23:14:40.137Z,6.64
2023-01-08T23:19:42.185Z,6.64
2023-01-08T23:24:43.888Z,6.65
2023-01-08T23:29:45.568Z,6.57
2023-01-08T23:34:48.149Z,6.58
2023-01-08T23:39:49.889Z,6.50
2023-01-08T23:44:51.530Z,6.51
2023-01-08T23:49:53.556Z,6.53
2023-01-08T23:54:55.239Z,6.53
2023-01-08T23:59:56.908Z,6.49
